Time;durP1;ratioP1;P1;durP2;ratioP2;P2;SDS_P1;SDS_P2;PMS_P1;PMS_P2;Temp;Humidity;BMP_temperature;BMP_pressure;BME280_temperature;BME280_humidity;BME280_pressure;Samples;Min_cycle;Max_cycle;Signal;HPM_P1;HPM_P2
2022/03/22 00:01:24;;;;;;;13.13;6.20;;;8.90;99.20;;;;;;5089099;28;20035;-83
2022/03/22 00:03:50;;;;;;;15.32;6.90;;;8.90;98.90;;;;;;5081163;28;20404;-83
2022/03/22 00:06:17;;;;;;;12.05;6.47;;;8.90;99.00;;;;;;5088319;28;20032;-83
2022/03/22 00:08:43;;;;;;;13.88;6.60;;;8.90;98.60;;;;;;5088523;28;20048;-84
2022/03/22 00:11:09;;;;;;;13.70;7.13;;;8.80;98.80;;;;;;5090938;28;20031;-84
2022/03/22 00:13:35;;;;;;;13.52;7.72;;;8.70;98.70;;;;;;5090251;28;20020;-84
2022/03/22 00:16:01;;;;;;;14.90;6.53;;;8.70;98.40;;;;;;5090154;28;20508;-83
2022/03/22 00:18:27;;;;;;;10.80;6.18;;;8.90;97.70;;;;;;5089952;28;20023;-83
2022/03/22 00:20:53;;;;;;;12.70;6.13;;;8.80;97.90;;;;;;5090489;28;20097;-83
2022/03/22 00:23:19;;;;;;;15.77;6.40;;;8.80;97.80;;;;;;5090468;28;20494;-84
2022/03/22 00:25:45;;;;;;;13.07;6.10;;;8.80;98.20;;;;;;5089690;28;20031;-84
2022/03/22 00:28:12;;;;;;;12.07;6.30;;;8.70;98.20;;;;;;5084714;28;20073;-82
2022/03/22 00:30:39;;;;;;;12.10;6.70;;;8.70;98.30;;;;;;5089844;28;20031;-82
2022/03/22 00:33:06;;;;;;;10.77;5.57;;;8.70;98.10;;;;;;5088348;28;20066;-82
2022/03/22 00:35:37;;;;;;;12.95;6.68;;;8.80;98.40;;;;;;5089468;28;20039;-83
2022/03/22 00:38:06;;;;;;;13.52;6.38;;;8.80;98.10;;;;;;5090387;28;20051;-83
2022/03/22 00:40:32;;;;;;;15.20;6.50;;;8.80;98.20;;;;;;5090873;28;20024;-83
2022/03/22 00:42:58;;;;;;;11.40;6.45;;;8.70;98.40;;;;;;5088364;28;20439;-82
2022/03/22 00:45:31;;;;;;;13.07;5.95;;;8.70;98.70;;;;;;5088421;28;20020;-82
2022/03/22 00:47:58;;;;;;;10.35;6.05;;;8.70;98.80;;;;;;5084663;28;20024;-82
2022/03/22 00:50:29;;;;;;;9.60;5.93;;;8.70;98.80;;;;;;5080345;28;20024;-82
2022/03/22 00:52:57;;;;;;;13.93;6.20;;;8.70;99.10;;;;;;5090988;28;20126;-83
2022/03/22 00:55:23;;;;;;;14.48;7.63;;;8.70;99.10;;;;;;5090062;28;20129;-83
2022/03/22 00:57:51;;;;;;;10.50;6.10;;;8.70;99.30;;;;;;5081039;28;20066;-82
2022/03/22 01:00:17;;;;;;;8.70;6.10;;;8.70;99.60;;;;;;5089198;28;20039;-81
2022/03/22 01:02:49;;;;;;;12.73;7.75;;;8.70;99.70;;;;;;5087529;28;20455;-82
2022/03/22 01:05:17;;;;;;;13.35;6.78;;;8.60;99.90;;;;;;5089703;28;20028;-82
2022/03/22 01:07:45;;;;;;;12.75;6.35;;;8.60;99.90;;;;;;5089403;28;20020;-82
2022/03/22 01:10:12;;;;;;;13.63;6.38;;;8.60;99.90;;;;;;5084454;28;20044;-82
2022/03/22 01:12:40;;;;;;;10.82;6.75;;;8.60;99.90;;;;;;5089501;28;20106;-82
2022/03/22 01:15:15;;;;;;;12.68;6.00;;;8.60;99.90;;;;;;5084074;28;20118;-85
2022/03/22 01:17:54;;;;;;;12.70;5.97;;;8.60;99.90;;;;;;5089725;28;20016;-83
2022/03/22 01:20:22;;;;;;;10.80;6.10;;;8.60;99.60;;;;;;5089327;28;20159;-83
2022/03/22 01:22:49;;;;;;;9.32;6.28;;;8.60;99.30;;;;;;5095067;28;20020;-82
2022/03/22 01:25:20;;;;;;;9.88;5.88;;;8.60;99.60;;;;;;5088011;28;20024;-82
2022/03/22 01:27:47;;;;;;;14.73;6.40;;;8.50;99.90;;;;;;5093369;28;20031;-82
2022/03/22 01:30:15;;;;;;;11.05;6.97;;;8.60;99.10;;;;;;5093385;28;20034;-83
2022/03/22 01:32:42;;;;;;;10.70;6.07;;;8.60;99.10;;;;;;5093482;28;20051;-83
2022/03/22 01:35:09;;;;;;;10.93;6.75;;;8.50;99.30;;;;;;5093734;28;20027;-82
2022/03/22 01:37:36;;;;;;;11.68;7.03;;;8.50;99.00;;;;;;5092187;28;20521;-82
2022/03/22 01:40:02;;;;;;;11.07;6.60;;;8.60;98.70;;;;;;5093406;28;20028;-82
2022/03/22 01:42:29;;;;;;;14.25;5.80;;;8.50;98.80;;;;;;5093229;28;20089;-81
2022/03/22 01:44:54;;;;;;;14.35;6.32;;;8.30;99.10;;;;;;5093670;28;20065;-81
2022/03/22 01:47:25;;;;;;;12.18;6.25;;;8.30;98.90;;;;;;5093150;28;20031;-81
2022/03/22 01:49:51;;;;;;;15.93;8.07;;;8.40;98.60;;;;;;5093072;28;20031;-81
2022/03/22 01:52:20;;;;;;;12.90;6.22;;;8.50;98.20;;;;;;5092833;28;20048;-84
2022/03/22 01:54:49;;;;;;;14.13;6.28;;;8.60;97.50;;;;;;5093083;28;20057;-84
2022/03/22 01:57:19;;;;;;;9.10;5.80;;;8.60;97.20;;;;;;5092968;28;20031;-85
2022/03/22 01:59:46;;;;;;;10.15;5.70;;;8.70;97.40;;;;;;5089617;28;20036;-85
2022/03/22 02:07:43;;;;;;;13.27;5.88;;;8.60;97.20;;;;;;5094088;28;20085;-82
2022/03/22 02:10:08;;;;;;;13.45;6.05;;;8.60;97.70;;;;;;5090920;28;20101;-81
2022/03/22 02:12:34;;;;;;;10.02;6.22;;;8.50;97.70;;;;;;5092569;28;20501;-81
2022/03/22 02:15:01;;;;;;;14.52;6.30;;;8.40;98.00;;;;;;5083973;28;20037;-81
2022/03/22 02:17:27;;;;;;;14.45;6.40;;;8.40;97.80;;;;;;5091405;28;20047;-82
2022/03/22 02:19:54;;;;;;;10.77;6.47;;;8.40;98.30;;;;;;5073622;28;20486;-82
2022/03/22 02:22:25;;;;;;;14.02;6.32;;;8.40;98.80;;;;;;5092255;28;20028;-81
2022/03/22 02:24:50;;;;;;;12.23;6.00;;;8.40;98.70;;;;;;5092414;28;20028;-81
2022/03/22 02:27:16;;;;;;;18.75;6.95;;;8.40;99.40;;;;;;5092459;28;20501;-81
2022/03/22 02:29:43;;;;;;;9.05;6.03;;;8.50;99.10;;;;;;5085330;28;20478;-81
2022/03/22 02:32:09;;;;;;;12.30;6.28;;;8.40;99.70;;;;;;5089925;28;20023;-81
2022/03/22 02:34:39;;;;;;;9.73;6.55;;;8.40;99.90;;;;;;5091256;28;20019;-81
2022/03/22 02:37:05;;;;;;;11.43;6.25;;;8.30;99.70;;;;;;5091790;28;20106;-81
2022/03/22 02:39:32;;;;;;;10.27;6.45;;;8.40;99.90;;;;;;5092204;28;20043;-81
2022/03/22 02:41:58;;;;;;;11.52;6.25;;;8.40;99.90;;;;;;5090624;28;20066;-81
2022/03/22 02:44:24;;;;;;;14.35;6.95;;;8.40;99.90;;;;;;5091047;28;20032;-81
2022/03/22 02:46:50;;;;;;;13.82;8.50;;;8.60;99.90;;;;;;5093339;28;20441;-81
2022/03/22 02:49:16;;;;;;;9.88;6.35;;;8.70;99.90;;;;;;5089333;28;20051;-83
2022/03/22 02:51:42;;;;;;;12.35;6.47;;;8.70;99.90;;;;;;5085411;28;20124;-83
2022/03/22 02:54:09;;;;;;;11.55;6.32;;;8.50;99.90;;;;;;5092076;28;20162;-82
2022/03/22 02:56:35;;;;;;;12.40;6.75;;;8.50;99.90;;;;;;5085486;28;20040;-82
2022/03/22 02:59:04;;;;;;;13.13;6.88;;;8.50;99.90;;;;;;5072667;28;20025;-82
2022/03/22 03:01:32;;;;;;;15.82;8.35;;;8.50;99.90;;;;;;5092640;28;20032;-82
2022/03/22 03:04:00;;;;;;;16.45;7.78;;;8.50;99.90;;;;;;5091518;28;20023;-82
2022/03/22 03:06:28;;;;;;;11.68;7.20;;;8.50;99.90;;;;;;5088625;28;20024;-83
2022/03/22 03:08:56;;;;;;;21.52;8.13;;;8.50;99.90;;;;;;5088138;28;20024;-82
2022/03/22 03:11:21;;;;;;;13.73;7.57;;;8.60;99.90;;;;;;5075056;28;20030;-82
2022/03/22 03:16:32;;;;;;;12.80;7.35;;;8.70;99.90;;;;;;5084840;28;20046;-82
2022/03/22 03:18:57;;;;;;;9.57;6.50;;;8.70;99.90;;;;;;5078807;28;20024;-82
2022/03/22 03:21:23;;;;;;;11.63;7.30;;;8.60;99.90;;;;;;5083232;28;20432;-84
2022/03/22 03:23:49;;;;;;;11.93;7.00;;;8.60;99.90;;;;;;5083159;28;20024;-82
2022/03/22 03:26:14;;;;;;;12.82;7.53;;;8.60;99.90;;;;;;5089259;28;20021;-83
2022/03/22 03:28:40;;;;;;;12.07;6.53;;;8.70;99.90;;;;;;5091405;28;20413;-81
2022/03/22 03:31:06;;;;;;;13.73;7.78;;;8.60;99.90;;;;;;5089369;28;20028;-84
2022/03/22 03:33:32;;;;;;;11.50;6.82;;;8.70;99.90;;;;;;5085677;28;20528;-84
2022/03/22 03:35:58;;;;;;;9.82;7.28;;;8.70;99.90;;;;;;5091194;28;20089;-82
2022/03/22 03:38:24;;;;;;;15.57;7.53;;;8.80;99.90;;;;;;5090503;28;20456;-82
2022/03/22 03:43:34;;;;;;;12.43;6.93;;;8.70;99.90;;;;;;5091243;28;20073;-81
2022/03/22 03:48:44;;;;;;;13.02;7.03;;;8.70;99.90;;;;;;5078133;28;20032;-83
2022/03/22 03:51:09;;;;;;;13.43;6.80;;;8.80;99.90;;;;;;5087801;28;20069;-82
2022/03/22 03:53:35;;;;;;;12.18;7.47;;;8.70;99.90;;;;;;5090939;28;20536;-82
2022/03/22 03:56:01;;;;;;;12.20;7.32;;;8.80;99.90;;;;;;5091261;28;20026;-82
2022/03/22 03:58:26;;;;;;;10.80;7.30;;;8.70;99.90;;;;;;5090301;28;20525;-84
2022/03/22 04:00:52;;;;;;;12.57;7.32;;;9.00;99.70;;;;;;5090558;28;20489;-84
2022/03/22 04:03:18;;;;;;;12.55;7.32;;;8.90;99.70;;;;;;5090319;28;20509;-83
2022/03/22 04:05:43;;;;;;;12.85;8.10;;;8.70;99.90;;;;;;5090357;28;20028;-82
2022/03/22 04:08:10;;;;;;;14.25;7.32;;;8.80;99.90;;;;;;5089228;28;20501;-82
2022/03/22 04:10:35;;;;;;;9.23;7.00;;;8.80;99.90;;;;;;5084775;28;20043;-83
2022/03/22 04:13:01;;;;;;;12.77;7.22;;;8.80;99.90;;;;;;5090255;28;20051;-82
2022/03/22 04:15:29;;;;;;;12.38;6.97;;;8.80;99.90;;;;;;5090076;28;20484;-82
2022/03/22 04:17:59;;;;;;;13.60;7.47;;;8.70;99.90;;;;;;5089581;28;20201;-83
2022/03/22 04:20:25;;;;;;;11.82;6.68;;;8.70;99.90;;;;;;5088697;28;20027;-82
2022/03/22 04:22:51;;;;;;;14.48;8.27;;;8.80;99.90;;;;;;5086651;28;20099;-84
2022/03/22 04:25:18;;;;;;;11.52;7.55;;;8.80;99.90;;;;;;5080720;28;20943;-84
2022/03/22 04:33:12;;;;;;;16.48;7.97;;;8.80;99.90;;;;;;5089905;28;20078;-82
2022/03/22 04:35:39;;;;;;;14.27;8.07;;;8.90;99.90;;;;;;5090130;28;20028;-83
2022/03/22 04:38:05;;;;;;;12.73;6.90;;;8.90;99.90;;;;;;5089246;28;20481;-82
2022/03/22 04:40:31;;;;;;;13.30;7.00;;;8.90;99.90;;;;;;5075275;28;20098;-82
2022/03/22 04:42:57;;;;;;;15.45;6.93;;;8.90;99.90;;;;;;5074345;28;20016;-83
2022/03/22 04:45:24;;;;;;;11.00;6.80;;;8.80;99.90;;;;;;5080628;28;20020;-82
2022/03/22 04:47:49;;;;;;;11.70;7.03;;;8.90;99.90;;;;;;5090011;28;20627;-82
2022/03/22 04:50:17;;;;;;;8.75;5.75;;;8.90;99.90;;;;;;5080347;28;20111;-82
2022/03/22 04:58:12;;;;;;;13.13;5.65;;;8.90;99.90;;;;;;5089557;28;20030;-82
2022/03/22 05:00:38;;;;;;;12.80;7.25;;;8.90;99.90;;;;;;5089641;28;20464;-81
2022/03/22 05:03:07;;;;;;;18.05;6.43;;;9.00;99.90;;;;;;5089332;28;20039;-83
2022/03/22 05:08:18;;;;;;;15.55;6.10;;;8.90;99.90;;;;;;5089948;28;20035;-84
2022/03/22 05:10:43;;;;;;;11.25;5.82;;;9.00;99.90;;;;;;5090937;28;20032;-84
2022/03/22 05:13:09;;;;;;;12.05;5.55;;;9.00;99.90;;;;;;5089348;28;20501;-84
2022/03/22 05:15:35;;;;;;;9.73;5.30;;;9.00;99.90;;;;;;5089444;28;20024;-83
2022/03/22 05:18:01;;;;;;;12.57;5.63;;;9.00;99.90;;;;;;5089235;28;20464;-82
2022/03/22 05:20:28;;;;;;;11.43;5.72;;;8.90;99.90;;;;;;5089925;28;20103;-82
2022/03/22 05:22:54;;;;;;;11.07;5.85;;;9.00;99.90;;;;;;5091076;28;20565;-82
2022/03/22 05:25:20;;;;;;;14.23;5.13;;;8.90;99.90;;;;;;5089500;28;20036;-81
2022/03/22 05:27:45;;;;;;;9.30;5.60;;;8.90;99.90;;;;;;5088510;28;20043;-82
2022/03/22 05:30:13;;;;;;;9.40;4.95;;;8.90;99.90;;;;;;5089277;28;20032;-81
2022/03/22 05:32:39;;;;;;;13.23;5.78;;;9.00;99.90;;;;;;5082621;28;20126;-82
2022/03/22 05:35:05;;;;;;;12.73;5.88;;;9.00;99.90;;;;;;5086251;28;20494;-82
2022/03/22 05:37:31;;;;;;;14.82;6.10;;;9.00;99.90;;;;;;5090280;28;20016;-81
2022/03/22 05:39:57;;;;;;;8.30;4.78;;;9.00;99.90;;;;;;5088805;28;20032;-81
2022/03/22 05:42:23;;;;;;;9.68;5.20;;;9.00;99.90;;;;;;5088015;28;20463;-81
2022/03/22 05:44:49;;;;;;;12.25;5.85;;;9.00;99.90;;;;;;5081371;28;20031;-80
2022/03/22 05:47:15;;;;;;;11.88;5.57;;;9.00;99.90;;;;;;5071641;28;20080;-81
2022/03/22 05:49:41;;;;;;;9.98;5.07;;;9.00;99.90;;;;;;5084509;28;20091;-81
2022/03/22 05:52:07;;;;;;;12.43;5.85;;;9.00;99.90;;;;;;5087038;28;20123;-82
2022/03/22 05:54:34;;;;;;;12.25;5.93;;;8.90;99.90;;;;;;5089112;28;20107;-81
2022/03/22 05:57:00;;;;;;;13.38;5.30;;;8.90;99.90;;;;;;5086143;28;20528;-80
2022/03/22 05:59:26;;;;;;;9.15;5.40;;;9.00;99.90;;;;;;5089134;28;20115;-81
2022/03/22 06:01:52;;;;;;;15.30;5.13;;;9.10;99.90;;;;;;5090339;28;20111;-81
2022/03/22 06:04:19;;;;;;;10.50;5.65;;;9.00;99.90;;;;;;5073727;28;20021;-80
2022/03/22 06:06:47;;;;;;;14.95;5.28;;;9.00;99.90;;;;;;5083917;28;20024;-81
2022/03/22 06:09:13;;;;;;;8.27;5.28;;;9.20;99.90;;;;;;5092704;28;20123;-81
2022/03/22 06:11:38;;;;;;;12.25;5.55;;;9.20;99.90;;;;;;5092949;28;20548;-81
2022/03/22 06:14:05;;;;;;;8.50;5.45;;;9.20;99.90;;;;;;5092943;28;20655;-81
2022/03/22 06:16:32;;;;;;;9.70;5.70;;;9.20;99.90;;;;;;5093720;28;20020;-80
2022/03/22 06:18:58;;;;;;;11.57;5.10;;;9.20;99.90;;;;;;5092343;28;20028;-80
2022/03/22 06:21:24;;;;;;;8.57;4.82;;;9.30;99.90;;;;;;5084124;28;20068;-81
2022/03/22 06:23:50;;;;;;;11.93;6.13;;;9.40;99.90;;;;;;5092426;28;20028;-84
2022/03/22 06:26:16;;;;;;;13.15;5.07;;;9.40;99.90;;;;;;5091334;28;20043;-83
2022/03/22 06:28:43;;;;;;;8.80;4.22;;;9.40;99.90;;;;;;5092348;28;20032;-83
2022/03/22 06:31:09;;;;;;;17.20;5.80;;;9.40;99.90;;;;;;5091861;28;20024;-82
2022/03/22 06:33:35;;;;;;;8.60;5.20;;;9.40;99.90;;;;;;5082699;28;20107;-82
2022/03/22 06:36:01;;;;;;;11.43;5.40;;;9.50;99.90;;;;;;5092221;28;20016;-82
2022/03/22 06:38:32;;;;;;;8.38;5.55;;;9.50;99.90;;;;;;5088102;28;20028;-82
2022/03/22 06:40:58;;;;;;;10.00;5.75;;;9.50;99.90;;;;;;5089431;28;20039;-81
2022/03/22 06:43:24;;;;;;;14.90;6.07;;;9.50;99.90;;;;;;5092628;28;20572;-83
2022/03/22 06:45:50;;;;;;;10.15;4.95;;;9.60;99.90;;;;;;5083498;28;20389;-80
2022/03/22 06:48:17;;;;;;;10.85;5.00;;;9.70;99.90;;;;;;5086606;28;20417;-81
2022/03/22 06:50:44;;;;;;;13.85;5.57;;;9.70;99.80;;;;;;5085428;28;20135;-81
2022/03/22 06:53:10;;;;;;;14.52;5.10;;;9.80;99.80;;;;;;5091956;28;20052;-81
2022/03/22 06:55:37;;;;;;;15.30;6.43;;;9.90;99.70;;;;;;5092709;28;20156;-81
2022/03/22 06:58:04;;;;;;;12.02;5.43;;;10.00;99.90;;;;;;5088800;28;20035;-85
2022/03/22 07:00:31;;;;;;;11.70;5.15;;;10.10;99.50;;;;;;5090452;28;20505;-84
2022/03/22 07:02:58;;;;;;;9.40;5.20;;;10.00;99.90;;;;;;5092204;28;20020;-84
2022/03/22 07:05:24;;;;;;;12.13;5.28;;;10.30;99.30;;;;;;5087204;28;20155;-86
2022/03/22 07:07:50;;;;;;;11.23;5.43;;;10.50;99.00;;;;;;5087834;28;20050;-85
2022/03/22 07:10:18;;;;;;;12.32;5.30;;;10.70;99.10;;;;;;5072605;28;20025;-85
2022/03/22 07:12:51;;;;;;;11.52;5.60;;;10.90;98.20;;;;;;5084419;28;20075;-85
2022/03/22 07:15:41;;;;;;;11.45;5.20;;;11.00;98.00;;;;;;5089553;28;20050;-86
2022/03/22 07:18:08;;;;;;;10.20;5.22;;;11.60;97.20;;;;;;5089300;28;20036;-85
2022/03/22 07:20:35;;;;;;;12.75;5.28;;;13.00;95.20;;;;;;5091489;28;20012;-86
2022/03/22 07:23:01;;;;;;;12.00;5.10;;;13.90;93.70;;;;;;5091911;28;20036;-82
2022/03/22 07:25:27;;;;;;;9.40;5.20;;;13.60;93.80;;;;;;5074405;28;20505;-82
2022/03/22 07:27:54;;;;;;;8.30;4.95;;;14.30;93.10;;;;;;5077540;28;20027;-83
2022/03/22 07:30:21;;;;;;;13.73;5.68;;;15.40;92.10;;;;;;5091254;28;20024;-83
2022/03/22 07:32:46;;;;;;;7.05;4.53;;;15.50;92.00;;;;;;5091130;28;20043;-83
2022/03/22 07:35:14;;;;;;;8.75;4.78;;;15.20;92.00;;;;;;5091166;28;20499;-83
2022/03/22 07:37:40;;;;;;;7.95;4.32;;;15.70;91.60;;;;;;5085786;28;20370;-83
2022/03/22 07:40:08;;;;;;;8.15;4.85;;;16.40;91.40;;;;;;5091009;28;20059;-83
2022/03/22 07:42:34;;;;;;;11.05;5.35;;;16.10;90.60;;;;;;5090790;28;20021;-84
2022/03/22 07:45:04;;;;;;;9.88;5.72;;;16.00;90.90;;;;;;5082614;28;20134;-83
2022/03/22 07:47:30;;;;;;;10.73;5.90;;;15.80;91.20;;;;;;5073836;28;20103;-84
2022/03/22 07:55:27;;;;;;;8.48;5.97;;;16.40;90.80;;;;;;5091664;28;20126;-86
2022/03/22 07:57:52;;;;;;;8.45;4.72;;;16.00;90.60;;;;;;5088334;28;20060;-85
2022/03/22 08:00:21;;;;;;;10.70;5.03;;;16.60;90.20;;;;;;5081251;28;20059;-83
2022/03/22 08:02:58;;;;;;;9.43;5.07;;;16.80;90.20;;;;;;5084236;28;20031;-84
2022/03/22 08:05:25;;;;;;;8.55;4.32;;;16.60;89.60;;;;;;5090442;28;20557;-83
2022/03/22 08:07:51;;;;;;;11.13;5.07;;;16.30;89.70;;;;;;5091814;28;20070;-82
2022/03/22 08:10:17;;;;;;;8.55;5.38;;;16.20;90.70;;;;;;5090284;28;20517;-83
2022/03/22 08:12:43;;;;;;;11.57;5.38;;;16.10;90.50;;;;;;5083289;28;20028;-82
2022/03/22 08:15:10;;;;;;;7.55;4.53;;;15.80;90.60;;;;;;5080200;28;20031;-83
2022/03/22 08:17:37;;;;;;;6.72;5.13;;;15.80;90.50;;;;;;5088495;28;20023;-83
2022/03/22 08:20:05;;;;;;;6.95;4.43;;;15.90;91.20;;;;;;5088962;28;20107;-83
2022/03/22 08:22:32;;;;;;;7.78;4.38;;;15.50;91.30;;;;;;5089933;28;20063;-82
2022/03/22 08:24:59;;;;;;;8.05;4.35;;;15.20;91.40;;;;;;5084923;28;20042;-83
2022/03/22 08:27:25;;;;;;;11.68;5.15;;;14.60;92.60;;;;;;5090083;28;20077;-82
2022/03/22 08:29:51;;;;;;;8.30;4.45;;;14.20;91.90;;;;;;5088686;28;20088;-84
2022/03/22 08:32:17;;;;;;;5.88;4.00;;;14.00;92.40;;;;;;5088198;28;20516;-85
2022/03/22 08:34:43;;;;;;;18.85;5.03;;;14.30;92.40;;;;;;5091487;28;20091;-86
2022/03/22 08:37:08;;;;;;;11.77;5.00;;;14.50;93.00;;;;;;5089612;28;20032;-87
2022/03/22 08:39:34;;;;;;;7.10;4.13;;;14.90;92.30;;;;;;5080314;28;20378;-86
2022/03/22 08:42:00;;;;;;;9.63;4.45;;;14.50;92.90;;;;;;5090196;28;20028;-86
2022/03/22 08:44:25;;;;;;;11.48;4.80;;;13.60;92.60;;;;;;5090057;28;20493;-85
2022/03/22 08:46:52;;;;;;;7.90;4.65;;;13.80;93.00;;;;;;5090920;28;20034;-82
2022/03/22 08:49:18;;;;;;;8.45;4.30;;;13.40;93.20;;;;;;5085620;28;20063;-83
2022/03/22 08:51:43;;;;;;;7.72;4.50;;;13.40;93.10;;;;;;5084270;28;20068;-83
2022/03/22 08:54:09;;;;;;;10.15;4.82;;;13.40;93.80;;;;;;5080262;28;20039;-82
2022/03/22 08:56:35;;;;;;;7.82;4.47;;;13.60;93.00;;;;;;5087472;28;20520;-83
2022/03/22 08:59:00;;;;;;;7.90;4.15;;;13.60;93.30;;;;;;5090242;28;20036;-83
2022/03/22 09:01:30;;;;;;;8.98;4.50;;;13.70;93.10;;;;;;5090606;28;20021;-83
2022/03/22 09:06:44;;;;;;;5.57;3.63;;;13.40;93.30;;;;;;5061796;28;20086;-82
2022/03/22 09:09:10;;;;;;;10.07;4.40;;;13.80;93.60;;;;;;5066993;28;20044;-83
2022/03/22 09:11:39;;;;;;;8.07;3.67;;;13.60;92.60;;;;;;5050615;28;20498;-82
2022/03/22 09:14:05;;;;;;;9.13;4.05;;;13.30;92.80;;;;;;5050759;28;20123;-83
2022/03/22 09:16:32;;;;;;;6.78;4.30;;;13.20;93.20;;;;;;5068184;28;20039;-83
2022/03/22 09:18:58;;;;;;;8.35;5.20;;;13.50;93.90;;;;;;5065542;28;20043;-82
2022/03/22 09:21:24;;;;;;;9.43;4.55;;;13.80;93.40;;;;;;5067318;28;20028;-83
2022/03/22 09:23:49;;;;;;;7.60;4.35;;;14.10;93.50;;;;;;5049691;28;20534;-82
2022/03/22 09:26:15;;;;;;;5.88;3.83;;;13.90;93.00;;;;;;5067135;28;20020;-83
2022/03/22 09:28:41;;;;;;;6.60;4.40;;;14.00;92.40;;;;;;5068362;28;20036;-81
2022/03/22 09:31:07;;;;;;;7.88;4.13;;;14.10;92.60;;;;;;5067095;28;20066;-83
2022/03/22 09:33:33;;;;;;;7.15;3.65;;;14.20;92.00;;;;;;5049951;28;20533;-84
2022/03/22 09:35:59;;;;;;;7.75;4.00;;;13.70;92.00;;;;;;5050351;28;20031;-84
2022/03/22 09:38:25;;;;;;;7.55;3.67;;;13.40;91.60;;;;;;5066746;28;20052;-85
2022/03/22 09:40:54;;;;;;;10.13;3.55;;;13.80;91.20;;;;;;5068212;28;20055;-84
2022/03/22 09:43:22;;;;;;;8.95;3.80;;;13.90;91.30;;;;;;5069548;28;20173;-84
2022/03/22 09:45:51;;;;;;;4.50;3.33;;;13.60;90.80;;;;;;5088448;28;20031;-82
2022/03/22 09:48:17;;;;;;;5.38;3.67;;;13.90;91.80;;;;;;5091796;28;20032;-83
2022/03/22 09:53:35;;;;;;;6.80;3.90;;;14.00;91.20;;;;;;5046763;28;20065;-82
2022/03/22 09:56:00;;;;;;;7.63;3.67;;;14.00;91.00;;;;;;5035516;28;20453;-82
2022/03/22 09:58:26;;;;;;;6.15;3.38;;;14.10;90.60;;;;;;5047350;28;20102;-82
2022/03/22 10:00:52;;;;;;;6.35;3.72;;;13.90;90.60;;;;;;5046214;28;20518;-82
2022/03/22 10:03:21;;;;;;;6.75;3.65;;;13.90;90.40;;;;;;5047366;28;20039;-84
2022/03/22 10:06:05;;;;;;;8.07;3.25;;;13.60;90.20;;;;;;5033904;28;20033;-85
2022/03/22 10:08:31;;;;;;;4.85;3.30;;;13.80;90.60;;;;;;5031196;28;20033;-83
2022/03/22 10:10:58;;;;;;;6.50;3.25;;;13.80;90.70;;;;;;5051718;28;20075;-84
2022/03/22 10:13:25;;;;;;;12.88;4.25;;;14.10;90.20;;;;;;5022870;28;20025;-81
2022/03/22 10:15:59;;;;;;;6.00;3.90;;;14.20;90.00;;;;;;5041790;28;20044;-84
2022/03/22 10:18:25;;;;;;;8.38;3.90;;;14.10;91.20;;;;;;5049484;28;20044;-84
2022/03/22 10:21:00;;;;;;;8.48;3.40;;;14.20;90.70;;;;;;5033239;28;20029;-85
2022/03/22 10:23:26;;;;;;;4.53;3.38;;;14.40;90.90;;;;;;5047485;28;20029;-88
2022/03/22 10:26:05;;;;;;;6.15;3.95;;;14.30;90.10;;;;;;5036672;28;20523;-82
2022/03/22 10:28:32;;;;;;;6.70;3.53;;;14.30;89.00;;;;;;5030943;28;20061;-83
2022/03/22 10:30:58;;;;;;;7.65;3.67;;;14.40;89.60;;;;;;5072564;28;20066;-84
2022/03/22 10:33:23;;;;;;;8.43;3.65;;;14.30;89.90;;;;;;5092436;28;20431;-82
2022/03/22 10:35:50;;;;;;;7.10;3.50;;;14.50;90.00;;;;;;5092780;28;20046;-83
2022/03/22 10:38:19;;;;;;;5.60;3.58;;;14.50;88.10;;;;;;5091974;28;20020;-84
2022/03/22 10:40:47;;;;;;;10.30;3.78;;;14.60;88.50;;;;;;5092479;28;20528;-84
2022/03/22 10:43:18;;;;;;;6.43;3.47;;;14.60;87.20;;;;;;5091052;28;20024;-85
2022/03/22 10:45:45;;;;;;;;;;;14.70;88.10;;;;;;5092591;28;20020;-82
2022/03/22 10:48:19;;;;;;;7.00;3.58;;;14.70;88.10;;;;;;5092160;28;19907;-82
2022/03/22 10:50:49;;;;;;;5.93;3.42;;;15.00;89.20;;;;;;5081286;28;20028;-83
2022/03/22 10:53:20;;;;;;;6.90;3.45;;;15.10;89.20;;;;;;5091578;28;20134;-82
2022/03/22 10:55:47;;;;;;;7.97;3.65;;;15.00;86.70;;;;;;5093093;28;20028;-82
2022/03/22 10:58:15;;;;;;;7.15;3.88;;;15.00;87.50;;;;;;5077370;28;20032;-83
2022/03/22 11:00:44;;;;;;;8.57;3.38;;;14.60;86.80;;;;;;5085786;28;20501;-85
2022/03/22 11:03:11;;;;;;;7.35;3.63;;;14.70;88.10;;;;;;5091668;28;20104;-81
2022/03/22 11:05:40;;;;;;;7.63;3.50;;;14.70;87.40;;;;;;5091345;28;20018;-81
2022/03/22 11:08:06;;;;;;;6.10;3.72;;;14.90;88.90;;;;;;5091906;28;20020;-81
2022/03/22 11:10:32;;;;;;;4.93;3.42;;;15.00;86.70;;;;;;5092670;28;20551;-85
2022/03/22 11:12:59;;;;;;;9.52;4.65;;;15.00;88.00;;;;;;5089450;28;20024;-85
2022/03/22 11:15:27;;;;;;;6.32;3.55;;;15.00;87.70;;;;;;5090417;28;20047;-84
2022/03/22 11:17:55;;;;;;;6.93;3.47;;;15.00;87.90;;;;;;5084063;28;20083;-85
2022/03/22 11:20:23;;;;;;;5.75;3.38;;;15.10;87.40;;;;;;5090842;28;20485;-82
2022/03/22 11:22:54;;;;;;;6.82;3.15;;;15.10;88.70;;;;;;5092636;28;20021;-81
2022/03/22 11:25:24;;;;;;;7.75;3.40;;;15.20;89.30;;;;;;5090516;28;20012;-82
2022/03/22 11:27:59;;;;;;;9.55;4.25;;;15.20;88.50;;;;;;5091281;28;20103;-85
2022/03/22 11:30:26;;;;;;;6.47;3.63;;;15.00;89.70;;;;;;5089989;28;20016;-83
2022/03/22 11:36:21;;;;;;;8.55;3.80;;;15.10;87.80;;;;;;5071352;28;20051;-83
2022/03/22 11:38:54;;;;;;;11.38;4.13;;;15.10;88.30;;;;;;5076810;28;20123;-84
2022/03/22 11:44:29;;;;;;;8.68;3.90;;;15.10;88.60;;;;;;5091438;28;20085;-84
2022/03/22 11:47:05;;;;;;;7.60;3.83;;;15.30;89.50;;;;;;5092128;28;20051;-83
2022/03/22 11:49:45;;;;;;;9.77;4.35;;;15.40;90.20;;;;;;5084352;28;20067;-83
2022/03/22 11:52:12;;;;;;;8.27;4.60;;;15.30;89.00;;;;;;5087808;28;20540;-84
2022/03/22 11:54:39;;;;;;;7.90;4.18;;;15.20;90.30;;;;;;5089436;28;20520;-84
2022/03/22 11:57:06;;;;;;;8.50;4.65;;;15.50;89.50;;;;;;5085340;28;20032;-84
2022/03/22 11:59:42;;;;;;;6.30;3.72;;;15.30;89.10;;;;;;5090768;28;20028;-84
2022/03/22 12:02:16;;;;;;;7.90;3.40;;;15.50;89.40;;;;;;5090074;28;20051;-83
2022/03/22 12:04:52;;;;;;;6.13;4.05;;;15.50;89.10;;;;;;5089185;28;20564;-82
2022/03/22 12:07:33;;;;;;;7.90;3.90;;;15.60;90.90;;;;;;5089827;28;20031;-83
2022/03/22 12:10:13;;;;;;;4.80;3.30;;;15.80;89.60;;;;;;5090332;28;20034;-82
2022/03/22 12:12:41;;;;;;;6.43;3.65;;;15.60;89.10;;;;;;5088738;28;20031;-84
2022/03/22 12:15:11;;;;;;;5.63;3.58;;;15.50;88.30;;;;;;5088794;28;20071;-83
2022/03/22 12:17:38;;;;;;;6.43;4.00;;;15.50;89.20;;;;;;5084200;28;20021;-84
2022/03/22 12:20:24;;;;;;;6.00;3.78;;;15.50;89.00;;;;;;5086430;28;20028;-83
2022/03/22 12:22:52;;;;;;;4.55;3.47;;;15.80;89.40;;;;;;5091702;28;20032;-82
2022/03/22 12:25:22;;;;;;;6.72;3.83;;;16.10;90.20;;;;;;5090027;28;20034;-82
2022/03/22 12:28:00;;;;;;;6.32;3.55;;;16.30;89.30;;;;;;5090064;28;20047;-82
2022/03/22 12:30:34;;;;;;;10.73;4.03;;;16.20;88.90;;;;;;5081638;28;20024;-84
2022/03/22 12:33:02;;;;;;;7.57;4.00;;;16.00;87.50;;;;;;5088267;28;20035;-85
2022/03/22 12:35:28;;;;;;;10.10;4.60;;;15.90;87.70;;;;;;5088513;28;20493;-84
2022/03/22 12:37:57;;;;;;;8.48;4.60;;;15.90;88.10;;;;;;5089819;28;20505;-84
2022/03/22 12:40:24;;;;;;;11.48;4.15;;;15.80;87.70;;;;;;5088397;28;20089;-82
2022/03/22 12:42:50;;;;;;;8.30;4.00;;;16.00;87.60;;;;;;5089231;28;20020;-81
2022/03/22 12:45:18;;;;;;;8.95;3.92;;;15.90;86.70;;;;;;5081385;28;20070;-83
2022/03/22 12:47:45;;;;;;;7.72;3.63;;;15.30;87.60;;;;;;5090063;28;20020;-84
2022/03/22 12:50:13;;;;;;;5.70;3.55;;;15.70;88.50;;;;;;5081571;28;20059;-82
2022/03/22 12:52:39;;;;;;;11.60;4.35;;;15.90;88.30;;;;;;5084449;28;20596;-81
2022/03/22 12:55:07;;;;;;;6.63;3.80;;;15.70;89.40;;;;;;5088421;28;20115;-84
2022/03/22 12:57:34;;;;;;;6.07;4.13;;;15.70;88.00;;;;;;5089760;28;20004;-84
2022/03/22 13:00:00;;;;;;;10.00;3.50;;;15.90;89.20;;;;;;5089753;28;20024;-83
2022/03/22 13:02:27;;;;;;;8.93;4.30;;;15.90;89.00;;;;;;5089062;28;20009;-83
2022/03/22 13:04:54;;;;;;;7.15;4.00;;;16.20;90.50;;;;;;5089620;28;20012;-81
2022/03/22 13:07:22;;;;;;;7.38;3.88;;;15.90;87.80;;;;;;5078965;28;20021;-84
2022/03/22 13:12:36;;;;;;;6.10;3.80;;;16.00;89.70;;;;;;5089424;28;20141;-82
2022/03/22 13:15:11;;;;;;;8.45;4.13;;;15.80;89.50;;;;;;5089518;28;20040;-83
2022/03/22 13:17:52;;;;;;;7.65;3.78;;;15.70;88.90;;;;;;5087923;28;20104;-83
2022/03/22 13:20:21;;;;;;;9.93;4.68;;;15.80;88.20;;;;;;5092862;28;20039;-83
2022/03/22 13:23:09;;;;;;;9.75;4.40;;;15.80;87.70;;;;;;5095177;28;20028;-83
2022/03/22 13:25:39;;;;;;;6.43;3.65;;;15.50;86.00;;;;;;5087582;28;20028;-83
2022/03/22 13:28:14;;;;;;;7.50;3.88;;;15.80;88.00;;;;;;5092395;28;20085;-83
2022/03/22 13:30:47;;;;;;;9.20;4.18;;;15.60;87.70;;;;;;5091281;28;20069;-84
2022/03/22 13:33:18;;;;;;;6.45;4.20;;;15.50;87.10;;;;;;5093202;28;20126;-83
2022/03/22 13:36:04;;;;;;;10.23;4.10;;;15.60;86.70;;;;;;5093637;28;20024;-84
2022/03/22 13:38:33;;;;;;;8.20;3.58;;;15.60;86.50;;;;;;5077565;28;20027;-83